Time;durP1;ratioP1;P1;durP2;ratioP2;P2;SDS_P1;SDS_P2;PMS_P1;PMS_P2;Temp;Humidity;BMP_temperature;BMP_pressure;BME280_temperature;BME280_humidity;BME280_pressure;Samples;Min_cycle;Max_cycle;Signal;HPM_P1;HPM_P2
2022/06/27 00:00:23;;;;;;;0.60;0.60;;;;;;;21.26;72.09;96372.56;5060189;28;20206;-54
2022/06/27 00:02:50;;;;;;;0.85;0.50;;;;;;;21.18;70.11;96375.53;5064432;28;20253;-54
2022/06/27 00:05:17;;;;;;;0.82;0.57;;;;;;;21.09;71.41;96384.84;5065304;28;20195;-57
2022/06/27 00:07:45;;;;;;;0.90;0.57;;;;;;;21.08;71.82;96385.91;5059335;28;20287;-54
2022/06/27 00:10:12;;;;;;;1.25;0.45;;;;;;;20.99;70.13;96369.16;5051561;28;20234;-54
2022/06/27 00:12:39;;;;;;;0.82;0.40;;;;;;;20.96;70.70;96379.53;5050772;28;20282;-53
2022/06/27 00:15:07;;;;;;;0.22;0.22;;;;;;;20.99;70.33;96390.69;5051547;28;20265;-54
2022/06/27 00:17:33;;;;;;;1.38;0.40;;;;;;;20.92;70.77;96387.19;5051265;28;20302;-52
2022/06/27 00:20:00;;;;;;;0.50;0.50;;;;;;;20.92;70.32;96378.31;5051705;28;20282;-53
2022/06/27 00:22:27;;;;;;;0.60;0.60;;;;;;;20.87;70.90;96370.06;5051382;28;20306;-55
2022/06/27 00:24:57;;;;;;;1.75;0.30;;;;;;;20.84;70.94;96374.00;5051280;28;20306;-54
2022/06/27 00:27:23;;;;;;;0.40;0.40;;;;;;;20.74;72.04;96384.38;5051372;28;20203;-54
2022/06/27 00:29:51;;;;;;;0.32;0.32;;;;;;;20.73;72.40;96394.28;5051732;28;20245;-54
2022/06/27 00:32:18;;;;;;;0.15;0.15;;;;;;;20.70;72.07;96400.09;5053013;28;20211;-55
2022/06/27 00:34:44;;;;;;;0.20;0.20;;;;;;;20.66;73.38;96409.63;5054816;28;20668;-53
2022/06/27 00:37:11;;;;;;;0.30;0.30;;;;;;;20.69;72.81;96417.25;5054561;28;20647;-53
2022/06/27 00:39:38;;;;;;;1.33;0.40;;;;;;;20.55;72.69;96418.31;5050815;28;20302;-53
2022/06/27 00:42:07;;;;;;;0.43;0.35;;;;;;;20.54;73.27;96416.69;5055031;28;20299;-53
2022/06/27 00:44:35;;;;;;;0.70;0.60;;;;;;;20.56;73.72;96421.84;5051567;28;20631;-54
2022/06/27 00:47:02;;;;;;;0.52;0.40;;;;;;;20.59;74.26;96434.84;5052552;28;20196;-54
2022/06/27 00:49:30;;;;;;;1.05;0.35;;;;;;;20.61;73.20;96427.41;5052064;28;20298;-54
2022/06/27 00:51:57;;;;;;;0.38;0.38;;;;;;;20.65;72.68;96421.38;5051959;28;20288;-53
2022/06/27 00:54:24;;;;;;;0.82;0.35;;;;;;;20.58;73.83;96422.47;5051709;28;20272;-53
2022/06/27 00:56:51;;;;;;;0.47;0.40;;;;;;;20.63;72.71;96420.78;5054876;28;20215;-54
2022/06/27 00:59:20;;;;;;;0.32;0.28;;;;;;;20.57;73.04;96416.28;5054944;28;20206;-54
2022/06/27 01:01:46;;;;;;;0.50;0.38;;;;;;;20.45;74.04;96419.78;5055602;28;20225;-54
2022/06/27 01:04:13;;;;;;;0.73;0.50;;;;;;;20.35;74.58;96441.72;5056149;28;20316;-54
2022/06/27 01:06:40;;;;;;;0.32;0.30;;;;;;;20.32;74.83;96444.81;5055757;28;20651;-53
2022/06/27 01:09:07;;;;;;;0.30;0.30;;;;;;;20.29;74.98;96442.56;5055013;28;20221;-54
2022/06/27 01:11:34;;;;;;;0.47;0.30;;;;;;;20.26;76.17;96434.91;5055890;28;20211;-55
2022/06/27 01:14:01;;;;;;;0.73;0.38;;;;;;;20.28;76.39;96427.47;5055759;28;20547;-52
2022/06/27 01:16:29;;;;;;;1.50;0.38;;;;;;;20.33;75.29;96436.53;5055405;28;20253;-54
2022/06/27 01:18:56;;;;;;;0.40;0.40;;;;;;;20.40;74.78;96431.19;5054921;28;20588;-53
2022/06/27 01:21:24;;;;;;;0.30;0.30;;;;;;;20.27;75.35;96436.53;5055129;28;20301;-53
2022/06/27 01:23:52;;;;;;;1.27;0.38;;;;;;;20.26;75.87;96451.81;5054775;28;20237;-54
2022/06/27 01:26:19;;;;;;;0.65;0.50;;;;;;;20.20;75.91;96457.19;5054944;28;20195;-53
2022/06/27 01:28:46;;;;;;;2.05;0.50;;;;;;;20.16;76.45;96458.63;5053204;28;20724;-53
2022/06/27 01:31:12;;;;;;;0.73;0.30;;;;;;;20.22;76.13;96468.56;5054393;28;20734;-52
2022/06/27 01:33:39;;;;;;;0.40;0.40;;;;;;;20.20;76.64;96466.06;5054727;28;20195;-55
2022/06/27 01:38:52;;;;;;;0.50;0.40;;;;;;;20.19;76.67;96468.97;5053847;28;20694;-53
2022/06/27 01:41:19;;;;;;;0.55;0.47;;;;;;;20.14;76.43;96466.91;5054552;28;20294;-54
2022/06/27 01:43:47;;;;;;;0.40;0.40;;;;;;;20.03;78.60;96478.25;5054521;28;20246;-53
2022/06/27 01:46:14;;;;;;;0.50;0.35;;;;;;;20.02;78.58;96481.13;5054712;28;20596;-54
2022/06/27 01:48:40;;;;;;;1.40;0.28;;;;;;;19.99;81.00;96470.81;5054271;28;20241;-54
2022/06/27 01:51:08;;;;;;;0.75;0.50;;;;;;;19.97;79.79;96460.31;5055051;28;20261;-53
2022/06/27 01:53:36;;;;;;;1.90;0.40;;;;;;;19.99;80.18;96466.28;5054911;28;20203;-53
2022/06/27 01:56:05;;;;;;;1.75;0.30;;;;;;;19.96;81.38;96457.81;5054826;28;20640;-53
2022/06/27 01:58:32;;;;;;;0.50;0.50;;;;;;;19.98;80.37;96459.25;5055197;28;20289;-54
2022/06/27 02:00:59;;;;;;;1.38;0.40;;;;;;;19.96;80.68;96463.19;5055055;28;20207;-53
2022/06/27 02:03:26;;;;;;;0.63;0.40;;;;;;;19.95;81.41;96451.59;5055231;28;20317;-54
2022/06/27 02:05:52;;;;;;;0.50;0.50;;;;;;;19.95;81.47;96448.09;5055007;28;20569;-53
2022/06/27 02:08:21;;;;;;;0.32;0.32;;;;;;;19.90;82.06;96447.91;5052837;28;20285;-53
2022/06/27 02:10:48;;;;;;;1.05;0.40;;;;;;;19.84;82.61;96446.84;5056801;28;20245;-53
2022/06/27 02:13:16;;;;;;;1.13;0.30;;;;;;;19.77;83.05;96452.22;5078663;28;20183;-54
2022/06/27 02:16:04;;;;;;;0.43;0.43;;;;;;;19.79;82.81;96449.34;5074516;28;20203;-55
2022/06/27 02:18:31;;;;;;;0.40;0.40;;;;;;;19.71;83.44;96439.63;5065974;28;20546;-53
2022/06/27 02:20:58;;;;;;;0.32;0.32;;;;;;;19.75;82.35;96442.72;5061817;28;20207;-54
2022/06/27 02:23:25;;;;;;;0.40;0.40;;;;;;;19.68;83.74;96450.78;5055291;28;20249;-54
2022/06/27 02:25:51;;;;;;;0.40;0.35;;;;;;;19.64;84.05;96454.06;5055151;28;20663;-53
2022/06/27 02:28:22;;;;;;;0.75;0.50;;;;;;;19.60;84.50;96450.13;5054821;28;20306;-53
2022/06/27 02:30:49;;;;;;;0.50;0.30;;;;;;;19.63;84.49;96455.06;5054574;28;20222;-54
2022/06/27 02:33:15;;;;;;;0.50;0.25;;;;;;;19.59;85.98;96454.66;5055082;28;20326;-54
2022/06/27 02:35:44;;;;;;;0.40;0.40;;;;;;;19.55;85.36;96452.63;5055354;28;20322;-54
2022/06/27 02:38:11;;;;;;;0.82;0.50;;;;;;;19.55;84.63;96441.88;5054350;28;20230;-52
2022/06/27 02:40:39;;;;;;;0.35;0.35;;;;;;;19.45;86.25;96436.88;5054495;28;20277;-54
2022/06/27 02:43:09;;;;;;;0.85;0.43;;;;;;;19.40;86.59;96439.34;5054479;28;20215;-53
2022/06/27 02:45:39;;;;;;;0.63;0.38;;;;;;;19.36;86.38;96432.72;5056081;28;20286;-53
2022/06/27 02:48:07;;;;;;;0.28;0.28;;;;;;;19.35;86.47;96421.16;5055858;28;20427;-55
2022/06/27 02:50:36;;;;;;;0.73;0.65;;;;;;;19.23;88.49;96414.75;5055757;28;20318;-55
2022/06/27 02:53:06;;;;;;;0.47;0.47;;;;;;;19.24;87.02;96428.97;5057018;28;20210;-52
2022/06/27 02:55:36;;;;;;;2.17;0.70;;;;;;;19.18;87.32;96435.16;5057292;28;20234;-53
2022/06/27 02:58:09;;;;;;;0.45;0.45;;;;;;;19.10;88.27;96424.59;5073355;28;20213;-56
2022/06/27 03:00:40;;;;;;;0.40;0.40;;;;;;;19.01;88.93;96423.97;5077718;28;20334;-54
2022/06/27 03:03:08;;;;;;;0.88;0.52;;;;;;;18.92;90.24;96419.78;5079032;28;20207;-53
2022/06/27 03:05:35;;;;;;;1.55;0.63;;;;;;;18.87;90.87;96419.56;5079298;28;20235;-53
2022/06/27 03:08:01;;;;;;;1.08;0.50;;;;;;;18.91;90.53;96414.66;5078741;28;20206;-54
2022/06/27 03:10:29;;;;;;;2.72;0.65;;;;;;;18.92;90.14;96413.63;5073546;28;20224;-54
2022/06/27 03:12:55;;;;;;;0.60;0.60;;;;;;;18.89;89.24;96412.97;5076191;28;20187;-54
2022/06/27 03:15:22;;;;;;;0.70;0.70;;;;;;;18.78;90.75;96418.91;5079187;28;20190;-53
2022/06/27 03:17:50;;;;;;;1.20;0.43;;;;;;;18.75;91.41;96403.25;5079173;28;20195;-54
2022/06/27 03:20:17;;;;;;;0.50;0.50;;;;;;;18.72;91.67;96402.81;5078689;28;20191;-54
2022/06/27 03:22:43;;;;;;;0.60;0.60;;;;;;;18.70;91.50;96403.03;5067464;28;20199;-54
2022/06/27 03:25:10;;;;;;;0.50;0.50;;;;;;;18.75;91.14;96397.88;5053502;28;20203;-53
2022/06/27 03:27:37;;;;;;;0.60;0.40;;;;;;;18.79;90.30;96392.94;5052684;28;20327;-54
2022/06/27 03:30:04;;;;;;;1.25;0.30;;;;;;;18.72;90.84;96390.25;5052114;28;20299;-54
2022/06/27 03:32:32;;;;;;;1.00;0.55;;;;;;;18.51;93.62;96394.88;5052221;28;20636;-55
2022/06/27 03:35:00;;;;;;;1.17;0.52;;;;;;;18.43;94.58;96395.84;5052710;28;20282;-53
2022/06/27 03:37:27;;;;;;;0.40;0.40;;;;;;;18.39;95.12;96391.91;5051423;28;20686;-54
2022/06/27 03:39:53;;;;;;;0.43;0.43;;;;;;;18.30;95.43;96379.72;5052212;28;20231;-54
2022/06/27 03:42:20;;;;;;;1.77;0.57;;;;;;;18.23;95.69;96386.88;5052813;28;20222;-53
2022/06/27 03:44:47;;;;;;;0.75;0.50;;;;;;;18.20;96.86;96388.09;5053700;28;20231;-52
2022/06/27 03:47:14;;;;;;;0.60;0.60;;;;;;;18.16;97.07;96388.69;5053288;28;20203;-53
2022/06/27 03:52:28;;;;;;;2.10;0.70;;;;;;;18.25;96.08;96390.16;5052903;28;20217;-53
2022/06/27 03:54:55;;;;;;;3.15;0.70;;;;;;;18.15;97.22;96395.03;5052877;28;20539;-53
2022/06/27 03:57:22;;;;;;;0.43;0.43;;;;;;;18.16;96.94;96388.69;5052814;28;20308;-54
2022/06/27 03:59:48;;;;;;;1.08;0.50;;;;;;;18.17;97.39;96377.78;5052751;28;20286;-54
2022/06/27 04:02:16;;;;;;;0.73;0.50;;;;;;;18.27;95.46;96393.50;5052270;28;20264;-54
2022/06/27 04:04:42;;;;;;;1.75;0.65;;;;;;;18.26;95.25;96391.81;5052492;28;20219;-53
2022/06/27 04:07:09;;;;;;;0.50;0.50;;;;;;;18.19;96.44;96391.78;5052161;28;20294;-54
2022/06/27 04:09:37;;;;;;;0.63;0.63;;;;;;;18.24;95.51;96389.38;5051794;28;20209;-54
2022/06/27 04:12:04;;;;;;;1.17;0.60;;;;;;;18.21;97.08;96400.44;5052235;28;20199;-52
2022/06/27 04:14:31;;;;;;;1.65;0.70;;;;;;;18.24;97.75;96389.38;5052304;28;20203;-53
2022/06/27 04:16:58;;;;;;;0.70;0.70;;;;;;;18.34;97.62;96395.19;5051785;28;20235;-53
2022/06/27 04:19:24;;;;;;;1.48;0.60;;;;;;;18.60;96.35;96394.50;5052838;28;20234;-53
2022/06/27 04:21:51;;;;;;;0.60;0.60;;;;;;;18.78;94.85;96388.59;5055595;28;20290;-52
2022/06/27 04:24:18;;;;;;;1.33;0.80;;;;;;;18.93;94.68;96383.94;5073267;28;20249;-54
2022/06/27 04:26:46;;;;;;;0.63;0.63;;;;;;;19.04;93.36;96395.94;5073501;28;20994;-53
2022/06/27 04:29:13;;;;;;;1.67;0.65;;;;;;;19.27;91.56;96388.38;5074686;28;20194;-55
2022/06/27 04:31:39;;;;;;;1.00;0.93;;;;;;;19.35;90.50;96390.84;5073279;28;20195;-54
2022/06/27 04:34:06;;;;;;;0.80;0.70;;;;;;;19.45;90.63;96385.94;5070151;28;20191;-53
2022/06/27 04:36:33;;;;;;;0.80;0.80;;;;;;;19.55;88.76;96388.22;5057512;28;20207;-54
2022/06/27 04:38:59;;;;;;;0.65;0.65;;;;;;;19.66;88.60;96380.38;5057783;28;20593;-53
2022/06/27 04:41:26;;;;;;;0.60;0.60;;;;;;;19.58;89.22;96387.81;5057782;28;20202;-52
2022/06/27 04:43:55;;;;;;;1.05;0.93;;;;;;;19.59;89.34;96392.97;5056259;28;20330;-53
2022/06/27 04:46:23;;;;;;;0.60;0.60;;;;;;;19.58;90.49;96398.56;5057222;28;20211;-53
2022/06/27 04:48:49;;;;;;;1.42;0.80;;;;;;;19.59;91.02;96400.22;5057056;28;20211;-55
2022/06/27 04:51:16;;;;;;;1.60;0.73;;;;;;;19.67;89.63;96406.19;5055916;28;20274;-54
2022/06/27 04:53:43;;;;;;;0.70;0.70;;;;;;;19.78;89.59;96408.25;5055790;28;20597;-54
2022/06/27 04:56:11;;;;;;;0.70;0.70;;;;;;;19.84;88.68;96406.59;5055695;28;20211;-53
2022/06/27 04:58:38;;;;;;;0.60;0.60;;;;;;;19.95;88.08;96414.03;5056760;28;20207;-54
2022/06/27 05:01:06;;;;;;;3.00;1.17;;;;;;;19.98;87.32;96415.50;5056317;28;20211;-53
2022/06/27 05:03:32;;;;;;;0.88;0.88;;;;;;;19.98;87.91;96415.50;5056554;28;20278;-54
2022/06/27 05:05:59;;;;;;;0.70;0.70;;;;;;;19.97;88.30;96419.22;5057231;28;20290;-54
2022/06/27 05:08:27;;;;;;;0.65;0.65;;;;;;;19.95;87.26;96416.72;5055076;28;20231;-53
2022/06/27 05:10:53;;;;;;;0.85;0.75;;;;;;;20.10;88.09;96414.66;5057365;28;20219;-53
2022/06/27 05:13:20;;;;;;;1.35;0.90;;;;;;;20.14;87.09;96421.25;5058569;28;20290;-52
2022/06/27 05:15:47;;;;;;;0.80;0.80;;;;;;;20.26;87.18;96418.78;5054946;28;20294;-54
2022/06/27 05:18:15;;;;;;;1.73;1.05;;;;;;;20.30;86.15;96422.72;5056333;28;20199;-53
2022/06/27 05:20:42;;;;;;;1.50;0.90;;;;;;;20.46;86.03;96426.81;5054691;28;20628;-54
2022/06/27 05:23:08;;;;;;;1.10;0.82;;;;;;;20.55;84.68;96429.06;5055231;28;20290;-54
2022/06/27 05:25:35;;;;;;;1.10;1.00;;;;;;;20.67;83.88;96427.41;5055608;28;20615;-54
2022/06/27 05:28:03;;;;;;;2.40;1.27;;;;;;;20.72;84.62;96435.66;5055021;28;20643;-56
2022/06/27 05:30:30;;;;;;;1.70;1.08;;;;;;;20.90;83.79;96426.09;5055589;28;20238;-55
2022/06/27 05:32:57;;;;;;;2.50;0.80;;;;;;;21.03;83.77;96431.41;5054210;28;20209;-54
2022/06/27 05:35:26;;;;;;;1.02;1.02;;;;;;;21.19;83.19;96437.16;5055025;28;20585;-53
2022/06/27 05:37:53;;;;;;;1.33;0.95;;;;;;;21.29;81.97;96442.09;5055193;28;20207;-53
2022/06/27 05:40:21;;;;;;;1.35;1.20;;;;;;;21.42;81.28;96435.78;5055080;28;20219;-53
2022/06/27 05:42:48;;;;;;;1.58;1.10;;;;;;;21.50;79.99;96439.06;5053062;28;20302;-54
2022/06/27 05:45:15;;;;;;;2.40;1.17;;;;;;;21.60;80.40;96438.59;5054192;28;20285;-53
2022/06/27 05:47:42;;;;;;;1.13;1.10;;;;;;;21.77;79.43;96448.63;5054508;28;20214;-54
2022/06/27 05:50:09;;;;;;;2.47;0.90;;;;;;;21.94;79.69;96458.88;5054508;28;20219;-53
2022/06/27 05:52:39;;;;;;;1.38;1.00;;;;;;;22.10;77.85;96458.34;5054821;28;20332;-54
2022/06/27 05:55:07;;;;;;;1.25;1.15;;;;;;;22.24;77.20;96457.19;5054695;28;20223;-53
2022/06/27 05:57:34;;;;;;;1.10;1.00;;;;;;;22.33;76.74;96455.88;5054675;28;20294;-54
2022/06/27 06:00:01;;;;;;;2.85;0.82;;;;;;;22.38;76.54;96456.03;5054502;28;20203;-55
2022/06/27 06:02:27;;;;;;;1.20;0.98;;;;;;;22.63;74.96;96456.84;5053545;28;20286;-53
2022/06/27 06:04:54;;;;;;;2.75;1.00;;;;;;;22.69;74.97;96461.34;5053634;28;20254;-55
2022/06/27 06:07:22;;;;;;;3.28;1.05;;;;;;;22.83;73.66;96455.81;5054572;28;20235;-54
2022/06/27 06:09:50;;;;;;;1.67;0.90;;;;;;;23.01;73.72;96458.53;5054701;28;20208;-56
2022/06/27 06:12:18;;;;;;;1.27;0.95;;;;;;;23.23;73.12;96454.31;5055086;28;20207;-52
2022/06/27 06:14:46;;;;;;;0.98;0.80;;;;;;;23.43;72.12;96451.38;5054301;28;20223;-54
2022/06/27 06:17:13;;;;;;;1.25;0.88;;;;;;;23.44;73.36;96456.56;5053974;28;20191;-53
2022/06/27 06:19:40;;;;;;;1.17;0.77;;;;;;;23.67;72.20;96445.03;5053299;28;20675;-55
2022/06/27 06:22:08;;;;;;;1.05;0.55;;;;;;;23.87;67.73;96452.84;5054466;28;20202;-54
2022/06/27 06:24:35;;;;;;;0.45;0.45;;;;;;;23.84;68.72;96453.31;5053173;28;20231;-56
2022/06/27 06:27:04;;;;;;;0.60;0.50;;;;;;;24.03;68.38;96454.88;5053572;28;20214;-56
2022/06/27 06:29:30;;;;;;;0.50;0.40;;;;;;;24.22;67.25;96456.47;5052783;28;20237;-54
2022/06/27 06:31:57;;;;;;;0.50;0.50;;;;;;;24.21;67.40;96466.47;5053936;28;20294;-55
2022/06/27 06:34:24;;;;;;;0.43;0.40;;;;;;;24.45;67.19;96470.00;5054140;28;20274;-55
2022/06/27 06:36:51;;;;;;;0.82;0.47;;;;;;;24.69;66.01;96471.66;5052830;28;20192;-55
2022/06/27 06:39:18;;;;;;;0.52;0.52;;;;;;;24.71;65.32;96466.84;5056615;28;20647;-56
2022/06/27 06:41:45;;;;;;;0.60;0.60;;;;;;;24.39;64.97;96473.66;5062590;28;20206;-55
2022/06/27 06:44:13;;;;;;;1.00;0.70;;;;;;;24.46;67.10;96481.63;5052848;28;20219;-54
2022/06/27 06:46:40;;;;;;;0.82;0.70;;;;;;;24.62;66.17;96487.16;5052649;28;20290;-55
2022/06/27 06:49:09;;;;;;;0.95;0.85;;;;;;;24.72;65.89;96490.13;5055116;28;20215;-55
2022/06/27 06:51:36;;;;;;;0.80;0.65;;;;;;;24.47;65.59;96491.41;5053507;28;20280;-55
2022/06/27 06:54:04;;;;;;;0.80;0.60;;;;;;;24.18;66.43;96485.00;5052481;28;20260;-55
2022/06/27 06:56:31;;;;;;;0.90;0.52;;;;;;;24.13;67.38;96490.28;5052959;28;20226;-54
2022/06/27 06:58:58;;;;;;;0.63;0.63;;;;;;;23.92;66.80;96504.28;5053226;28;20294;-53
2022/06/27 07:01:27;;;;;;;0.50;0.50;;;;;;;23.46;71.28;96513.00;5051486;28;20297;-55
2022/06/27 07:03:54;;;;;;;0.73;0.70;;;;;;;23.17;71.78;96517.25;5052878;28;20211;-55
2022/06/27 07:06:24;;;;;;;1.75;0.70;;;;;;;22.97;70.83;96517.47;5053246;28;20310;-53
2022/06/27 07:08:53;;;;;;;0.50;0.50;;;;;;;22.74;73.06;96533.50;5052512;28;20615;-54
2022/06/27 07:11:21;;;;;;;1.83;0.90;;;;;;;22.42;73.83;96535.41;5052845;28;20203;-54
2022/06/27 07:13:48;;;;;;;1.77;0.50;;;;;;;22.35;75.17;96537.31;5052729;28;20207;-55
2022/06/27 07:16:15;;;;;;;2.15;1.00;;;;;;;22.52;75.10;96535.72;5053019;28;20644;-54
2022/06/27 07:18:44;;;;;;;3.63;1.90;;;;;;;22.82;73.64;96530.50;5052898;28;20195;-56
2022/06/27 07:21:11;;;;;;;12.02;6.30;;;;;;;22.98;73.30;96534.50;5053227;28;20516;-56
2022/06/27 07:23:38;;;;;;;1.80;1.65;;;;;;;22.98;72.67;96547.97;5052813;28;20214;-54
2022/06/27 07:26:06;;;;;;;6.65;3.55;;;;;;;22.80;72.16;96546.91;5053974;28;20223;-54
2022/06/27 07:28:34;;;;;;;3.03;2.53;;;;;;;22.55;73.45;96556.00;5052915;28;20203;-54
2022/06/27 07:31:01;;;;;;;1.30;1.20;;;;;;;22.58;75.29;96551.00;5053530;28;20299;-55
2022/06/27 07:33:29;;;;;;;2.30;0.80;;;;;;;22.78;73.37;96545.47;5052291;28;20211;-53
2022/06/27 07:35:57;;;;;;;1.50;0.65;;;;;;;22.88;73.43;96550.38;5053145;28;20283;-53
2022/06/27 07:38:23;;;;;;;1.40;0.70;;;;;;;22.93;72.51;96547.81;5052517;28;20200;-53
2022/06/27 07:40:50;;;;;;;0.65;0.65;;;;;;;22.89;74.04;96546.59;5052635;28;20288;-55
2022/06/27 07:43:17;;;;;;;1.20;0.80;;;;;;;22.90;74.86;96542.88;5052414;28;20249;-54
2022/06/27 07:45:44;;;;;;;0.70;0.65;;;;;;;23.06;75.91;96550.41;5050780;28;20231;-54
2022/06/27 07:48:12;;;;;;;0.73;0.73;;;;;;;23.18;75.83;96551.28;5052265;28;20566;-54
2022/06/27 07:50:39;;;;;;;0.90;0.90;;;;;;;23.28;73.86;96548.88;5051073;28;20227;-52
2022/06/27 07:53:17;;;;;;;1.02;0.90;;;;;;;23.34;72.79;96555.28;5051175;28;20222;-52
2022/06/27 07:55:47;;;;;;;4.50;0.90;;;;;;;23.59;73.93;96562.28;5052316;28;20408;-56
2022/06/27 07:58:15;;;;;;;1.90;1.13;;;;;;;23.56;73.24;96560.00;5051904;28;20208;-53
2022/06/27 08:00:44;;;;;;;0.50;0.50;;;;;;;23.55;72.11;96563.78;5051494;28;20210;-55
2022/06/27 08:05:55;;;;;;;1.38;0.68;;;;;;;23.30;69.53;96563.00;5050753;28;20654;-55
2022/06/27 08:08:24;;;;;;;0.93;0.90;;;;;;;23.20;72.21;96568.88;5051804;28;20207;-54
2022/06/27 08:10:51;;;;;;;0.50;0.50;;;;;;;23.16;72.75;96564.19;5050510;28;20648;-53
2022/06/27 08:13:18;;;;;;;2.15;0.63;;;;;;;23.05;72.71;96559.53;5052024;28;20278;-52
2022/06/27 08:15:47;;;;;;;0.57;0.52;;;;;;;23.02;72.53;96558.09;5052034;28;20664;-55
2022/06/27 08:18:14;;;;;;;0.47;0.47;;;;;;;23.15;71.97;96562.53;5051670;28;20203;-53
2022/06/27 08:20:42;;;;;;;0.90;0.75;;;;;;;23.07;69.71;96565.50;5052284;28;20205;-55
2022/06/27 08:23:09;;;;;;;1.13;0.80;;;;;;;23.03;72.28;96558.91;5050911;28;20249;-54
2022/06/27 08:25:37;;;;;;;0.80;0.80;;;;;;;23.28;71.45;96556.97;5050899;28;20277;-56
2022/06/27 08:28:04;;;;;;;0.85;0.85;;;;;;;23.33;71.29;96559.84;5051879;28;20199;-54
2022/06/27 08:30:33;;;;;;;2.03;1.05;;;;;;;23.43;71.47;96570.97;5051475;28;20246;-55
2022/06/27 08:33:00;;;;;;;1.80;1.10;;;;;;;23.58;71.34;96576.00;5051216;28;20207;-54
2022/06/27 08:35:27;;;;;;;0.93;0.88;;;;;;;23.61;69.65;96578.22;5051140;28;20214;-54
2022/06/27 08:37:55;;;;;;;0.80;0.80;;;;;;;23.66;67.60;96586.50;5050436;28;20213;-55
2022/06/27 08:40:22;;;;;;;1.85;0.90;;;;;;;23.47;67.44;96587.53;5051605;28;20203;-54
2022/06/27 08:42:50;;;;;;;0.80;0.80;;;;;;;23.70;67.34;96593.88;5051161;28;20264;-55
2022/06/27 08:45:20;;;;;;;1.77;0.70;;;;;;;24.03;65.70;96593.47;5048954;28;20314;-53
2022/06/27 08:47:47;;;;;;;2.25;1.05;;;;;;;24.09;66.13;96595.25;5052039;28;20675;-55
2022/06/27 08:50:16;;;;;;;1.10;1.00;;;;;;;24.16;67.32;96603.31;5067087;28;20314;-54
2022/06/27 08:52:45;;;;;;;1.23;0.80;;;;;;;24.01;64.88;96608.28;5069570;28;20215;-56
2022/06/27 08:55:14;;;;;;;0.77;0.77;;;;;;;23.88;67.39;96606.56;5051085;28;20231;-54
2022/06/27 08:57:42;;;;;;;0.75;0.63;;;;;;;24.01;67.99;96610.97;5050042;28;20294;-55
2022/06/27 09:00:14;;;;;;;1.30;0.85;;;;;;;24.05;65.57;96607.59;5050389;28;20648;-53
2022/06/27 09:02:43;;;;;;;1.50;0.90;;;;;;;23.96;66.05;96614.34;5050542;28;20199;-55
2022/06/27 09:05:15;;;;;;;0.60;0.57;;;;;;;23.97;67.13;96617.88;5051385;28;20222;-54
2022/06/27 09:07:50;;;;;;;1.10;0.98;;;;;;;24.08;67.82;96627.94;5050768;28;20203;-55
2022/06/27 09:10:25;;;;;;;1.38;1.20;;;;;;;24.09;66.66;96626.88;5051071;28;20242;-54
2022/06/27 09:13:00;;;;;;;1.40;1.27;;;;;;;23.98;66.01;96622.25;5050348;28;20256;-55
2022/06/27 09:15:46;;;;;;;1.10;1.00;;;;;;;23.70;67.15;96620.91;5050693;28;20191;-55
2022/06/27 09:18:14;;;;;;;0.90;0.90;;;;;;;23.61;66.97;96633.06;5054840;28;20191;-52
2022/06/27 09:20:46;;;;;;;0.90;0.90;;;;;;;23.47;67.52;96631.56;5054685;28;20524;-54
2022/06/27 09:23:49;;;;;;;1.45;0.80;;;;;;;23.49;69.24;96629.44;5054092;28;20195;-54
2022/06/27 09:26:18;;;;;;;1.45;1.02;;;;;;;23.54;66.07;96637.72;5022790;28;20235;-56
2022/06/27 09:28:47;;;;;;;0.70;0.70;;;;;;;23.45;67.31;96639.06;5022713;28;20714;-55
2022/06/27 09:31:35;;;;;;;1.83;0.70;;;;;;;23.46;70.18;96643.38;5039775;28;20285;-54
2022/06/27 09:34:08;;;;;;;0.95;0.88;;;;;;;23.57;67.07;96642.66;5057842;28;20207;-53
2022/06/27 09:36:35;;;;;;;0.98;0.80;;;;;;;23.53;68.95;96651.41;5060396;28;20210;-54
2022/06/27 09:39:03;;;;;;;1.23;0.90;;;;;;;23.48;67.63;96648.56;5063100;28;20199;-54
2022/06/27 09:41:31;;;;;;;2.70;0.90;;;;;;;23.41;68.63;96656.75;5060939;28;20203;-54
2022/06/27 09:44:03;;;;;;;2.05;0.90;;;;;;;23.46;68.45;96656.88;5059232;28;20207;-54
2022/06/27 09:46:35;;;;;;;0.68;0.65;;;;;;;23.60;69.03;96657.56;5057653;28;20207;-54
2022/06/27 09:49:03;;;;;;;2.35;1.05;;;;;;;23.56;66.56;96657.19;5062046;28;20270;-52
2022/06/27 09:51:31;;;;;;;2.15;1.05;;;;;;;23.51;66.81;96657.06;5060776;28;20241;-53
2022/06/27 09:54:00;;;;;;;1.08;0.80;;;;;;;23.39;66.61;96664.19;5059053;28;20199;-54
2022/06/27 09:56:29;;;;;;;1.05;0.95;;;;;;;23.39;68.88;96669.59;5061530;28;20294;-54
2022/06/27 09:58:55;;;;;;;3.60;1.00;;;;;;;23.47;67.23;96680.16;5061515;28;20584;-53
2022/06/27 10:01:22;;;;;;;0.93;0.88;;;;;;;23.28;67.07;96676.53;5065012;28;20234;-53
2022/06/27 10:03:50;;;;;;;0.80;0.80;;;;;;;23.28;69.46;96689.22;5065120;28;20238;-55
2022/06/27 10:06:17;;;;;;;1.13;0.93;;;;;;;23.33;66.81;96689.38;5065622;28;20308;-54
2022/06/27 10:08:48;;;;;;;1.00;0.98;;;;;;;23.28;68.29;96697.31;5062602;28;20214;-52
2022/06/27 10:11:14;;;;;;;1.65;1.02;;;;;;;23.28;67.20;96684.63;5053684;28;20191;-53
2022/06/27 10:13:43;;;;;;;1.00;1.00;;;;;;;23.23;67.82;96691.75;5054130;28;20520;-52
2022/06/27 10:16:12;;;;;;;1.75;0.93;;;;;;;23.18;68.12;96695.13;5053358;28;20207;-52
2022/06/27 10:19:04;;;;;;;1.10;1.00;;;;;;;23.15;70.48;96700.94;5053618;28;20261;-54
2022/06/27 10:21:32;;;;;;;2.30;0.93;;;;;;;23.22;71.40;96703.59;5053608;28;20269;-54
2022/06/27 10:24:32;;;;;;;0.77;0.77;;;;;;;23.40;71.53;96700.94;5054535;28;20207;-54
2022/06/27 10:27:06;;;;;;;0.82;0.77;;;;;;;23.58;67.48;96709.09;5059213;28;20249;-53
2022/06/27 10:29:42;;;;;;;1.73;0.95;;;;;;;23.62;65.02;96704.91;5061519;28;20226;-54
2022/06/27 10:32:09;;;;;;;0.82;0.70;;;;;;;23.57;64.27;96707.44;5063288;28;20207;-53
2022/06/27 10:35:09;;;;;;;1.42;0.82;;;;;;;23.46;63.43;96710.88;5063584;28;20205;-52
2022/06/27 10:37:37;;;;;;;1.70;0.73;;;;;;;23.39;64.71;96710.06;5059113;28;20262;-54
2022/06/27 10:40:51;;;;;;;1.48;0.77;;;;;;;23.47;65.46;96717.94;5057993;28;20234;-54
2022/06/27 10:43:38;;;;;;;0.50;0.50;;;;;;;23.54;62.61;96724.09;5063937;28;20214;-54
2022/06/27 10:46:52;;;;;;;0.68;0.68;;;;;;;23.56;62.22;96721.97;5064197;28;20243;-53
2022/06/27 10:49:23;;;;;;;0.80;0.70;;;;;;;23.44;62.94;96723.78;5063985;28;20207;-53
2022/06/27 10:51:52;;;;;;;0.88;0.88;;;;;;;23.35;64.85;96727.75;5067443;28;20231;-52
2022/06/27 10:54:19;;;;;;;0.50;0.50;;;;;;;23.27;64.68;96719.97;5062783;28;20257;-53
2022/06/27 10:56:47;;;;;;;0.98;0.90;;;;;;;23.45;66.63;96714.63;5059750;28;20616;-54
2022/06/27 11:00:04;;;;;;;0.70;0.70;;;;;;;23.73;66.03;96733.88;5059237;28;20708;-54
2022/06/27 11:02:33;;;;;;;1.17;0.80;;;;;;;23.91;65.50;96724.16;5061031;28;20207;-54
2022/06/27 11:05:00;;;;;;;0.82;0.80;;;;;;;24.04;64.73;96718.59;5060896;28;20302;-53
2022/06/27 11:07:29;;;;;;;0.98;0.70;;;;;;;24.51;63.29;96722.41;5066206;28;20222;-54
2022/06/27 11:09:56;;;;;;;0.70;0.70;;;;;;;24.87;62.01;96724.22;5065917;28;20583;-56
2022/06/27 11:12:30;;;;;;;1.00;1.00;;;;;;;24.95;62.35;96726.56;5060643;28;20219;-55
2022/06/27 11:14:58;;;;;;;1.58;0.70;;;;;;;25.26;60.25;96735.22;5060493;28;20218;-55
2022/06/27 11:17:29;;;;;;;1.15;0.65;;;;;;;25.56;58.33;96729.78;5061833;28;20218;-55
2022/06/27 11:20:26;;;;;;;0.75;0.75;;;;;;;25.66;58.27;96734.59;5062360;28;20242;-55
2022/06/27 11:22:57;;;;;;;1.02;0.63;;;;;;;25.92;58.39;96733.28;5073973;28;20215;-56
2022/06/27 11:25:27;;;;;;;0.90;0.90;;;;;;;26.11;54.93;96737.53;5073322;28;20517;-56
2022/06/27 11:27:56;;;;;;;0.73;0.73;;;;;;;25.87;58.06;96736.72;5067261;28;20222;-55
2022/06/27 11:33:17;;;;;;;0.60;0.60;;;;;;;25.81;56.95;96742.25;5070977;28;20198;-53
2022/06/27 11:35:44;;;;;;;0.60;0.60;;;;;;;25.69;55.55;96734.13;5068902;28;20226;-58
2022/06/27 11:38:12;;;;;;;1.27;0.82;;;;;;;25.30;55.23;96740.19;5075789;28;20183;-52
2022/06/27 11:40:39;;;;;;;0.70;0.70;;;;;;;25.46;58.06;96729.50;5077587;28;20176;-53
2022/06/27 11:43:07;;;;;;;1.83;0.73;;;;;;;25.53;59.72;96735.66;5078659;28;20180;-53
2022/06/27 11:45:41;;;;;;;1.25;1.15;;;;;;;25.66;57.08;96724.59;5079890;28;20182;-54
2022/06/27 11:48:15;;;;;;;0.65;0.65;;;;;;;25.71;60.36;96716.59;5075026;28;20192;-55
2022/06/27 11:50:43;;;;;;;0.80;0.80;;;;;;;25.74;59.92;96721.53;5051671;28;20329;-53
2022/06/27 11:53:09;;;;;;;0.70;0.70;;;;;;;25.41;56.41;96726.66;5050311;28;20222;-53